createdAt,value
2019-04-11T00:00:15.284Z,3.08
2019-04-11T00:01:36.080Z,3.08
2019-04-11T00:02:36.735Z,3.08
2019-04-11T00:03:47.451Z,3.07
2019-04-11T00:04:58.795Z,3.06
2019-04-11T00:06:09.577Z,3.04
2019-04-11T00:07:20.422Z,3.03
2019-04-11T00:08:30.445Z,3.02
2019-04-11T00:09:41.154Z,3.01
2019-04-11T00:10:53.426Z,3.01
2019-04-11T00:12:03.037Z,2.99
2019-04-11T00:13:18.919Z,2.99
2019-04-11T00:14:24.742Z,2.98
2019-04-11T00:15:35.454Z,2.99
2019-04-11T00:16:46.154Z,2.97
2019-04-11T00:17:56.870Z,2.96
2019-04-11T00:19:07.567Z,2.95
2019-04-11T00:20:18.751Z,2.95
2019-04-11T00:21:29.457Z,2.95
2019-04-11T00:22:40.181Z,2.94
2019-04-11T00:23:50.889Z,2.93
2019-04-11T00:25:01.600Z,2.92
2019-04-11T00:26:12.305Z,2.91
2019-04-11T00:27:23.004Z,2.90
2019-04-11T00:28:34.048Z,2.89
2019-04-11T00:29:44.847Z,2.89
2019-04-11T00:30:55.127Z,2.88
2019-04-11T00:32:08.047Z,2.87
2019-04-11T00:33:16.760Z,2.87
2019-04-11T00:34:27.467Z,2.86
2019-04-11T00:35:38.167Z,2.85
2019-04-11T00:36:48.863Z,2.84
2019-04-11T00:37:59.596Z,2.84
2019-04-11T00:39:11.119Z,2.82
2019-04-11T00:40:21.529Z,2.80
2019-04-11T00:41:32.343Z,2.80
2019-04-11T00:42:42.986Z,2.79
2019-04-11T00:43:54.549Z,2.79
2019-04-11T00:45:05.345Z,2.78
2019-04-11T00:46:14.887Z,2.78
2019-04-11T00:47:25.794Z,2.78
2019-04-11T00:48:36.312Z,2.78
2019-04-11T00:49:47.019Z,2.78
2019-04-11T00:50:57.729Z,2.77
2019-04-11T00:52:08.687Z,2.77
2019-04-11T00:53:20.378Z,2.77
2019-04-11T00:54:30.956Z,2.76
2019-04-11T00:55:41.783Z,2.76
2019-04-11T00:56:52.670Z,2.75
2019-04-11T00:58:03.498Z,2.75
2019-04-11T00:59:14.156Z,2.74
2019-04-11T01:00:24.320Z,2.72
2019-04-11T01:01:35.680Z,2.72
2019-04-11T01:02:45.720Z,2.71
2019-04-11T01:03:56.447Z,2.69
2019-04-11T01:05:07.574Z,2.68
2019-04-11T01:06:18.267Z,2.66
2019-04-11T01:07:29.115Z,2.66
2019-04-11T01:08:39.946Z,2.65
2019-04-11T01:09:50.708Z,2.62
2019-04-11T01:11:01.000Z,2.61
2019-04-11T01:12:12.200Z,2.59
2019-04-11T01:13:22.394Z,2.58
2019-04-11T01:14:34.053Z,2.57
2019-04-11T01:15:44.796Z,2.55
2019-04-11T01:16:54.521Z,2.52
2019-04-11T01:18:05.601Z,2.51
2019-04-11T01:19:16.379Z,2.50
2019-04-11T01:20:27.242Z,2.48
2019-04-11T01:21:37.813Z,2.46
2019-04-11T01:22:48.726Z,2.44
2019-04-11T01:23:59.611Z,2.42
2019-04-11T01:25:10.448Z,2.41
2019-04-11T01:26:21.216Z,2.39
2019-04-11T01:27:32.069Z,2.37
2019-04-11T01:28:42.883Z,2.36
2019-04-11T01:29:52.895Z,2.35
2019-04-11T01:31:03.591Z,2.33
2019-04-11T01:32:14.314Z,2.32
2019-04-11T01:33:25.000Z,2.29
2019-04-11T01:34:36.994Z,2.28
2019-04-11T01:35:46.413Z,2.28
2019-04-11T01:36:57.541Z,2.27
2019-04-11T01:38:08.300Z,2.25
2019-04-11T01:39:18.974Z,2.25
2019-04-11T01:40:29.838Z,2.23
2019-04-11T01:41:39.929Z,2.23
2019-04-11T01:42:51.364Z,2.21
2019-04-11T01:44:05.261Z,2.19
2019-04-11T01:45:12.044Z,2.18
2019-04-11T01:46:22.736Z,2.17
2019-04-11T01:47:33.423Z,2.16
2019-04-11T01:48:44.209Z,2.16
2019-04-11T01:49:54.960Z,2.14
2019-04-11T01:51:05.668Z,2.12
2019-04-11T01:52:16.386Z,2.11
2019-04-11T01:53:27.097Z,2.10
2019-04-11T01:54:37.760Z,2.09
2019-04-11T01:55:48.480Z,2.07
2019-04-11T01:56:59.169Z,2.05
2019-04-11T01:58:10.839Z,2.03
2019-04-11T01:59:21.542Z,2.02
2019-04-11T02:00:32.243Z,2.00
2019-04-11T02:01:42.950Z,1.98
2019-04-11T02:02:52.918Z,1.96
2019-04-11T02:04:03.633Z,1.96
2019-04-11T02:05:14.013Z,1.94
2019-04-11T02:06:25.623Z,1.92
2019-04-11T02:07:36.467Z,1.91
2019-04-11T02:08:47.174Z,1.88
2019-04-11T02:09:56.837Z,1.87
2019-04-11T02:11:08.189Z,1.85
2019-04-11T02:12:18.248Z,1.84
2019-04-11T02:13:29.851Z,1.82
2019-04-11T02:14:39.672Z,1.80
2019-04-11T02:15:50.192Z,1.79
2019-04-11T02:17:01.233Z,1.78
2019-04-11T02:18:11.600Z,1.75
2019-04-11T02:19:22.333Z,1.73
2019-04-11T02:20:33.375Z,1.72
2019-04-11T02:21:44.171Z,1.71
2019-04-11T02:22:54.992Z,1.68
2019-04-11T02:24:05.801Z,1.68
2019-04-11T02:25:16.441Z,1.66
2019-04-11T02:26:27.268Z,1.66
2019-04-11T02:27:38.125Z,1.64
2019-04-11T02:28:49.820Z,1.63
2019-04-11T02:30:01.224Z,1.62
2019-04-11T02:31:12.072Z,1.62
2019-04-11T02:32:24.590Z,1.62
2019-04-11T02:33:32.936Z,1.61
2019-04-11T02:34:43.885Z,1.60
2019-04-11T02:35:54.376Z,1.59
2019-04-11T02:37:05.033Z,1.59
2019-04-11T02:38:16.509Z,1.58
2019-04-11T02:39:27.467Z,1.59
2019-04-11T02:40:37.338Z,1.58
2019-04-11T02:41:47.578Z,1.58
2019-04-11T02:42:59.408Z,1.59
2019-04-11T02:44:27.310Z,1.58
2019-04-11T02:45:31.299Z,1.58
2019-04-11T02:46:38.274Z,1.58
2019-04-11T02:47:43.933Z,1.58
2019-04-11T02:48:52.212Z,1.58
2019-04-11T02:50:03.703Z,1.57
2019-04-11T02:51:14.536Z,1.57
2019-04-11T02:52:25.315Z,1.57
2019-04-11T02:53:34.581Z,1.58
2019-04-11T02:54:47.258Z,1.57
2019-04-11T02:55:56.900Z,1.57
2019-04-11T02:57:07.927Z,1.57
2019-04-11T02:58:18.689Z,1.56
2019-04-11T02:59:29.815Z,1.54
2019-04-11T03:00:40.283Z,1.53
2019-04-11T03:01:50.871Z,1.53
2019-04-11T03:03:01.657Z,1.52
2019-04-11T03:04:12.757Z,1.51
2019-04-11T03:05:22.011Z,1.50
2019-04-11T03:06:33.374Z,1.49
2019-04-11T03:07:43.318Z,1.48
2019-04-11T03:08:55.062Z,1.47
2019-04-11T03:10:05.117Z,1.46
2019-04-11T03:11:16.695Z,1.45
2019-04-11T03:12:27.596Z,1.45
2019-04-11T03:13:38.086Z,1.44
2019-04-11T03:15:05.398Z,1.43
2019-04-11T03:16:11.091Z,1.41
2019-04-11T03:17:17.366Z,1.41
2019-04-11T03:18:40.746Z,1.40
2019-04-11T03:19:46.848Z,1.39
2019-04-11T03:20:48.344Z,1.38
2019-04-11T03:21:52.433Z,1.37
2019-04-11T03:23:06.222Z,1.35
2019-04-11T03:24:15.346Z,1.35
2019-04-11T03:25:24.802Z,1.35
2019-04-11T03:26:35.667Z,1.33
2019-04-11T03:27:47.471Z,1.33
2019-04-11T03:28:57.566Z,1.32
2019-04-11T03:32:13.437Z,1.31
2019-04-11T03:33:17.179Z,1.30
2019-04-11T03:34:39.815Z,1.30
2019-04-11T03:35:36.930Z,1.31
2019-04-11T03:37:08.841Z,1.30
2019-04-11T03:37:37.302Z,1.29
2019-04-11T03:39:57.424Z,1.28
2019-04-11T03:41:02.460Z,1.27
2019-04-11T03:42:15.976Z,1.27
2019-04-11T03:43:23.089Z,1.27
2019-04-11T03:44:23.437Z,1.26
2019-04-11T03:45:48.076Z,1.25
2019-04-11T03:46:52.462Z,1.25
2019-04-11T03:48:03.244Z,1.24
2019-04-11T03:49:06.095Z,1.24
2019-04-11T03:50:16.507Z,1.23
2019-04-11T03:51:22.333Z,1.24
2019-04-11T03:52:32.737Z,1.23
2019-04-11T03:53:43.190Z,1.23
2019-04-11T03:54:53.976Z,1.21
2019-04-11T03:56:04.425Z,1.20
2019-04-11T03:57:15.736Z,1.20
2019-04-11T03:58:25.848Z,1.18
2019-04-11T03:59:36.728Z,1.17
2019-04-11T04:00:46.843Z,1.14
2019-04-11T04:01:59.700Z,1.14
2019-04-11T04:03:09.245Z,1.12
2019-04-11T04:04:21.336Z,1.10
2019-04-11T04:05:32.363Z,1.09
2019-04-11T04:06:41.500Z,1.08
2019-04-11T04:07:52.492Z,1.06
2019-04-11T04:09:03.151Z,1.05
2019-04-11T04:10:13.970Z,1.05
2019-04-11T04:11:26.728Z,1.04
2019-04-11T04:12:35.725Z,1.00
2019-04-11T04:13:47.089Z,0.99
2019-04-11T04:14:56.213Z,0.97
2019-04-11T04:17:19.148Z,0.96
2019-04-11T04:18:29.889Z,0.95
2019-04-11T04:19:40.351Z,0.94
2019-04-11T04:20:51.205Z,0.93
2019-04-11T04:22:03.117Z,0.92
2019-04-11T04:23:13.925Z,0.90
2019-04-11T04:24:22.996Z,0.89
2019-04-11T04:25:34.748Z,0.88
2019-04-11T04:26:44.330Z,0.88
2019-04-11T04:27:56.689Z,0.88
2019-04-11T04:29:07.402Z,0.88
2019-04-11T04:30:18.113Z,0.86
2019-04-11T04:31:28.530Z,0.86
2019-04-11T04:32:38.649Z,0.85
2019-04-11T04:33:48.861Z,0.85
2019-04-11T04:35:01.107Z,0.86
2019-04-11T04:36:11.005Z,0.85
2019-04-11T04:37:22.358Z,0.84
2019-04-11T04:38:31.690Z,0.84
2019-04-11T04:39:43.519Z,0.85
2019-04-11T04:41:07.354Z,0.85
2019-04-11T04:42:08.879Z,0.84
2019-04-11T04:43:14.649Z,0.85
2019-04-11T04:44:26.450Z,0.84
2019-04-11T04:45:54.143Z,0.86
2019-04-11T04:46:58.173Z,0.86
2019-04-11T04:48:03.298Z,0.87
2019-04-11T04:49:09.207Z,0.88
2019-04-11T04:50:20.039Z,0.88
2019-04-11T04:51:31.208Z,0.90
2019-04-11T04:52:40.877Z,0.92
2019-04-11T04:53:52.122Z,0.93
2019-04-11T04:55:03.922Z,0.93
2019-04-11T04:56:13.449Z,0.94
2019-04-11T04:57:24.442Z,0.96
2019-04-11T04:58:34.387Z,0.96
2019-04-11T04:59:44.890Z,0.97
2019-04-11T05:00:57.369Z,0.97
2019-04-11T05:02:06.651Z,0.99
2019-04-11T05:03:17.754Z,1.00
2019-04-11T05:04:29.609Z,1.01
2019-04-11T05:05:38.945Z,1.03
2019-04-11T05:06:50.907Z,1.06
2019-04-11T05:08:00.667Z,1.08
2019-04-11T05:09:10.738Z,1.10
2019-04-11T05:10:22.159Z,1.11
2019-04-11T05:11:31.826Z,1.13
2019-04-11T05:12:43.941Z,1.15
2019-04-11T05:13:54.490Z,1.17
2019-04-11T05:15:03.860Z,1.19
2019-04-11T05:16:17.537Z,1.20
2019-04-11T05:17:26.406Z,1.22
2019-04-11T05:18:36.440Z,1.24
2019-04-11T05:19:46.794Z,1.26
2019-04-11T05:20:57.463Z,1.28
2019-04-11T05:22:08.547Z,1.31
2019-04-11T05:23:18.790Z,1.34
2019-04-11T05:24:30.479Z,1.36
2019-04-11T05:25:40.134Z,1.37
2019-04-11T05:26:50.813Z,1.39
2019-04-11T05:28:02.260Z,1.43
2019-04-11T05:29:13.171Z,1.45
2019-04-11T05:30:23.118Z,1.48
2019-04-11T05:31:34.442Z,1.51
2019-04-11T05:32:45.171Z,1.55
2019-04-11T05:33:55.968Z,1.58
2019-04-11T05:35:05.507Z,1.61
2019-04-11T05:36:16.537Z,1.65
2019-04-11T05:37:27.013Z,1.68
2019-04-11T05:38:37.930Z,1.72
2019-04-11T05:39:48.263Z,1.76
2019-04-11T05:40:59.474Z,1.79
2019-04-11T05:42:11.203Z,1.84
2019-04-11T05:43:22.550Z,1.87
2019-04-11T05:44:32.573Z,1.91
2019-04-11T05:45:42.295Z,1.94
2019-04-11T05:46:58.534Z,1.97
2019-04-11T05:48:03.564Z,2.00
2019-04-11T05:49:14.245Z,2.02
2019-04-11T05:50:24.927Z,2.05
2019-04-11T05:51:39.364Z,2.10
2019-04-11T05:52:46.276Z,2.14
2019-04-11T05:53:57.733Z,2.17
2019-04-11T05:55:11.492Z,2.22
2019-04-11T05:56:19.174Z,2.25
2019-04-11T05:57:35.323Z,2.29
2019-04-11T05:58:44.351Z,2.33
2019-04-11T05:59:53.461Z,2.37
2019-04-11T06:01:01.365Z,2.42
2019-04-11T06:02:13.003Z,2.46
2019-04-11T06:03:23.957Z,2.51
2019-04-11T06:04:34.481Z,2.54
2019-04-11T06:05:44.962Z,2.58
2019-04-11T06:06:57.262Z,2.62
2019-04-11T06:08:06.611Z,2.66
2019-04-11T06:09:17.018Z,2.68
2019-04-11T06:10:28.287Z,2.71
2019-04-11T06:11:39.078Z,2.74
2019-04-11T06:12:49.081Z,2.78
2019-04-11T06:14:03.736Z,2.81
2019-04-11T06:15:11.566Z,2.85
2019-04-11T06:16:21.139Z,2.89
2019-04-11T06:17:32.332Z,2.94
2019-04-11T06:18:45.457Z,2.98
2019-04-11T06:19:53.593Z,3.02
2019-04-11T06:21:04.038Z,3.07
2019-04-11T06:22:15.075Z,3.12
2019-04-11T06:23:25.763Z,3.17
2019-04-11T06:24:36.493Z,3.22
2019-04-11T06:25:47.224Z,3.28
2019-04-11T06:26:58.883Z,3.31
2019-04-11T06:28:09.618Z,3.35
2019-04-11T06:29:25.805Z,3.40
2019-04-11T06:30:30.911Z,3.45
2019-04-11T06:31:42.328Z,3.50
2019-04-11T06:32:52.310Z,3.55
2019-04-11T06:34:03.006Z,3.60
2019-04-11T06:35:13.699Z,3.63
2019-04-11T06:36:26.582Z,3.66
2019-04-11T06:37:36.118Z,3.70
2019-04-11T06:38:46.808Z,3.74
2019-04-11T06:39:58.238Z,3.78
2019-04-11T06:41:08.346Z,3.82
2019-04-11T06:42:19.175Z,3.87
2019-04-11T06:43:28.861Z,3.92
2019-04-11T06:44:39.796Z,3.96
2019-04-11T06:45:52.359Z,4.01
2019-04-11T06:47:02.695Z,4.05
2019-04-11T06:48:13.550Z,4.09
2019-04-11T06:49:24.577Z,4.12
2019-04-11T06:50:34.066Z,4.18
2019-04-11T06:51:46.272Z,4.20
2019-04-11T06:52:56.052Z,4.25
2019-04-11T06:54:06.680Z,4.30
2019-04-11T06:55:18.275Z,4.35
2019-04-11T06:56:29.354Z,4.43
2019-04-11T06:57:40.338Z,4.49
2019-04-11T06:58:52.472Z,4.54
2019-04-11T07:00:01.194Z,4.59
2019-04-11T07:01:12.015Z,4.65
2019-04-11T07:02:24.496Z,4.70
2019-04-11T07:03:33.829Z,4.76
2019-04-11T07:04:44.098Z,4.82
2019-04-11T07:05:55.292Z,4.86
2019-04-11T07:07:06.509Z,4.89
2019-04-11T07:08:16.162Z,4.94
2019-04-11T07:09:28.741Z,4.97
2019-04-11T07:10:38.559Z,5.01
2019-04-11T07:11:50.472Z,5.04
2019-04-11T07:13:00.692Z,5.09
2019-04-11T07:14:12.418Z,5.12
2019-04-11T07:15:22.983Z,5.16
2019-04-11T07:16:32.642Z,5.20
2019-04-11T07:17:43.844Z,5.24
2019-04-11T07:18:54.839Z,5.27
2019-04-11T07:20:04.791Z,5.31
2019-04-11T07:21:15.506Z,5.35
2019-04-11T07:22:26.420Z,5.39
2019-04-11T07:23:38.356Z,5.44
2019-04-11T07:24:47.871Z,5.48
2019-04-11T07:25:58.588Z,5.51
2019-04-11T07:27:09.539Z,5.55
2019-04-11T07:28:20.030Z,5.58
2019-04-11T07:29:31.531Z,5.61
2019-04-11T07:30:41.679Z,5.64
2019-04-11T07:31:53.044Z,5.67
2019-04-11T07:33:03.936Z,5.69
2019-04-11T07:34:14.713Z,5.75
2019-04-11T07:35:24.989Z,5.77
2019-04-11T07:36:36.097Z,5.80
2019-04-11T07:37:47.393Z,5.84
2019-04-11T07:38:57.089Z,5.86
2019-04-11T07:40:09.467Z,5.90
2019-04-11T07:41:19.529Z,5.93
2019-04-11T07:42:30.958Z,5.97
2019-04-11T07:43:41.508Z,6.00
2019-04-11T07:44:52.557Z,6.06
2019-04-11T07:46:03.292Z,6.10
2019-04-11T07:47:19.270Z,6.14
2019-04-11T07:48:24.970Z,6.20
2019-04-11T07:49:35.490Z,6.26
2019-04-11T07:50:46.563Z,6.29
2019-04-11T07:51:58.079Z,6.29
2019-04-11T07:53:08.678Z,6.34
2019-04-11T07:54:18.486Z,6.38
2019-04-11T07:55:30.031Z,6.43
2019-04-11T07:56:39.971Z,6.48
2019-04-11T07:57:50.709Z,6.52
2019-04-11T07:59:01.450Z,6.59
2019-04-11T08:00:12.806Z,6.63
2019-04-11T08:01:22.945Z,6.69
2019-04-11T08:02:35.451Z,6.78
2019-04-11T08:03:44.930Z,6.85
2019-04-11T08:04:55.692Z,6.92
2019-04-11T08:06:07.501Z,6.94
2019-04-11T08:07:17.704Z,7.00
2019-04-11T08:08:30.127Z,7.05
2019-04-11T08:09:39.702Z,7.11
2019-04-11T08:10:50.581Z,7.14
2019-04-11T08:12:02.385Z,7.19
2019-04-11T08:13:12.363Z,7.25
2019-04-11T08:14:22.648Z,7.31
2019-04-11T08:15:33.534Z,7.39
2019-04-11T08:16:46.812Z,7.47
2019-04-11T08:17:56.410Z,7.54
2019-04-11T08:19:07.592Z,7.61
2019-04-11T08:20:17.973Z,7.70
2019-04-11T08:21:28.740Z,7.83
2019-04-11T08:22:39.489Z,8.06
2019-04-11T08:23:50.248Z,8.54
2019-04-11T08:25:01.003Z,9.37
2019-04-11T08:26:11.753Z,10.41
2019-04-11T08:27:23.214Z,11.06
2019-04-11T08:28:34.390Z,10.95
2019-04-11T08:29:44.380Z,10.52
2019-04-11T08:30:55.162Z,10.09
2019-04-11T08:32:05.697Z,9.79
2019-04-11T08:33:16.336Z,9.56
2019-04-11T08:34:27.137Z,9.39
2019-04-11T08:35:37.857Z,9.27
2019-04-11T08:36:48.966Z,9.19
2019-04-11T08:38:00.950Z,9.15
2019-04-11T08:39:11.070Z,9.16
2019-04-11T08:40:21.864Z,9.19
2019-04-11T08:41:32.113Z,9.27
2019-04-11T08:42:42.964Z,9.41
2019-04-11T08:43:53.840Z,9.67
2019-04-11T08:45:05.938Z,10.38
2019-04-11T08:46:15.654Z,11.98
2019-04-11T08:47:40.218Z,14.38
2019-04-11T08:48:37.574Z,16.87
2019-04-11T08:49:48.581Z,18.93
2019-04-11T08:50:59.603Z,20.77
2019-04-11T08:52:11.592Z,22.18
2019-04-11T08:53:21.725Z,23.35
2019-04-11T08:54:33.343Z,24.38
2019-04-11T08:55:53.110Z,25.68
2019-04-11T08:56:56.060Z,26.78
2019-04-11T08:58:07.233Z,27.45
2019-04-11T08:59:18.882Z,27.99
2019-04-11T09:00:31.253Z,28.14
2019-04-11T09:01:42.354Z,28.34
2019-04-11T09:02:53.461Z,28.65
2019-04-11T09:04:07.952Z,28.77
2019-04-11T09:05:18.797Z,28.73
2019-04-11T09:06:26.907Z,29.06
2019-04-11T09:07:38.241Z,29.39
2019-04-11T09:08:49.570Z,29.53
2019-04-11T09:10:01.974Z,29.73
2019-04-11T09:11:12.776Z,29.85
2019-04-11T09:12:24.602Z,29.95
2019-04-11T09:13:35.610Z,30.38
2019-04-11T09:14:46.570Z,30.50
2019-04-11T09:15:57.857Z,30.69
2019-04-11T09:17:10.095Z,30.72
2019-04-11T09:18:21.824Z,31.10
2019-04-11T09:19:32.812Z,31.96
2019-04-11T09:20:44.145Z,32.35
2019-04-11T09:21:56.252Z,32.05
2019-04-11T09:23:07.136Z,32.07
2019-04-11T09:24:18.747Z,32.02
2019-04-11T09:25:31.618Z,31.45
2019-04-11T09:26:42.545Z,31.55
2019-04-11T09:27:54.462Z,31.92
2019-04-11T09:29:06.788Z,32.28
2019-04-11T09:30:17.457Z,32.44
2019-04-11T09:31:27.882Z,32.41
2019-04-11T09:32:40.357Z,32.51
2019-04-11T09:33:51.054Z,32.58
2019-04-11T09:35:02.641Z,32.66
2019-04-11T09:36:15.514Z,32.90
2019-04-11T09:37:25.845Z,33.24
2019-04-11T09:38:38.164Z,33.54
2019-04-11T09:39:49.097Z,33.74
2019-04-11T09:41:00.790Z,33.80
2019-04-11T09:42:13.340Z,33.60
2019-04-11T09:43:24.243Z,33.41
2019-04-11T09:44:35.687Z,32.95
2019-04-11T09:45:47.954Z,32.58
2019-04-11T09:46:59.205Z,32.07
2019-04-11T09:48:14.940Z,31.67
2019-04-11T09:49:22.732Z,31.59
2019-04-11T09:50:34.216Z,31.24
2019-04-11T09:51:45.703Z,30.77
2019-04-11T09:52:57.951Z,30.01
2019-04-11T09:54:10.129Z,29.47
2019-04-11T09:55:21.328Z,29.16
2019-04-11T09:56:33.316Z,28.97
2019-04-11T09:57:44.291Z,28.70
2019-04-11T09:58:56.156Z,28.15
2019-04-11T10:00:07.939Z,27.90
2019-04-11T10:01:20.276Z,27.80
2019-04-11T10:02:31.745Z,27.61
2019-04-11T10:03:43.516Z,27.39
2019-04-11T10:04:56.851Z,27.08
2019-04-11T10:05:26.565Z,26.88
2019-04-11T10:06:38.869Z,26.73
2019-04-11T10:07:50.316Z,26.54
2019-04-11T10:09:01.848Z,26.40
2019-04-11T10:10:14.965Z,26.20
2019-04-11T10:11:26.771Z,26.20
2019-04-11T10:12:38.579Z,26.22
2019-04-11T10:13:51.200Z,26.27
2019-04-11T10:15:05.019Z,26.33
2019-04-11T10:16:16.040Z,26.24
2019-04-11T10:17:27.875Z,26.25
2019-04-11T10:18:41.135Z,26.39
2019-04-11T10:19:52.016Z,26.49
2019-04-11T10:21:04.737Z,26.65
2019-04-11T10:22:15.816Z,26.54
2019-04-11T10:23:28.916Z,26.53
2019-04-11T10:24:40.853Z,26.64
2019-04-11T10:25:51.867Z,26.92
2019-04-11T10:27:04.769Z,26.92
2019-04-11T10:28:17.475Z,26.89
2019-04-11T10:29:30.393Z,27.28
2019-04-11T10:30:41.961Z,27.95
2019-04-11T10:31:53.124Z,28.35
2019-04-11T10:33:04.994Z,28.38
2019-04-11T10:34:17.517Z,28.46
2019-04-11T10:35:30.279Z,28.92
2019-04-11T10:36:41.582Z,29.66
2019-04-11T10:37:53.452Z,30.44
2019-04-11T10:39:05.466Z,30.95
2019-04-11T10:40:20.611Z,30.93
2019-04-11T10:41:30.653Z,31.19
2019-04-11T10:42:42.471Z,31.59
2019-04-11T10:43:53.796Z,31.82
2019-04-11T10:45:06.591Z,32.10
2019-04-11T10:46:17.805Z,32.52
2019-04-11T10:47:31.182Z,32.97
2019-04-11T10:48:44.995Z,33.54
2019-04-11T10:49:54.665Z,33.92
2019-04-11T10:51:06.660Z,34.12
2019-04-11T10:52:18.352Z,34.12
2019-04-11T10:53:31.201Z,34.19
2019-04-11T10:54:42.209Z,34.53
2019-04-11T10:55:54.144Z,34.72
2019-04-11T10:57:06.079Z,34.80
2019-04-11T10:58:18.480Z,34.89
2019-04-11T10:59:32.346Z,34.66
2019-04-11T11:00:43.237Z,34.51
2019-04-11T11:01:56.092Z,34.58
2019-04-11T11:03:07.443Z,34.80
2019-04-11T11:04:20.036Z,34.87
2019-04-11T11:05:32.575Z,34.75
2019-04-11T11:06:46.468Z,34.81
2019-04-11T11:07:57.277Z,34.73
2019-04-11T11:09:10.120Z,34.45
2019-04-11T11:10:21.681Z,34.36
2019-04-11T11:11:33.165Z,34.39
2019-04-11T11:12:45.474Z,34.48
2019-04-11T11:13:58.410Z,34.75
2019-04-11T11:15:09.771Z,35.09
2019-04-11T11:16:22.320Z,35.21
2019-04-11T11:17:54.529Z,35.29
2019-04-11T11:19:15.383Z,35.30
2019-04-11T11:20:10.619Z,35.81
2019-04-11T11:21:09.844Z,36.13
2019-04-11T11:22:23.753Z,36.50
2019-04-11T11:23:35.270Z,36.80
2019-04-11T11:24:46.365Z,36.37
2019-04-11T11:25:58.524Z,35.47
2019-04-11T11:27:10.109Z,34.93
2019-04-11T11:28:22.072Z,34.54
2019-04-11T11:29:35.003Z,34.32
2019-04-11T11:30:47.403Z,33.99
2019-04-11T11:31:58.517Z,33.74
2019-04-11T11:33:10.910Z,33.20
2019-04-11T11:34:24.769Z,33.12
2019-04-11T11:35:39.080Z,33.38
2019-04-11T11:36:48.029Z,33.36
2019-04-11T11:37:59.777Z,33.01
2019-04-11T11:39:13.099Z,32.81
2019-04-11T11:40:24.131Z,32.86
2019-04-11T11:41:36.461Z,32.95
2019-04-11T11:42:48.044Z,33.18
2019-04-11T11:44:00.196Z,33.48
2019-04-11T11:45:13.100Z,33.88
2019-04-11T11:46:26.734Z,34.24
2019-04-11T11:47:39.541Z,34.21
2019-04-11T11:48:52.194Z,33.79
2019-04-11T11:50:02.790Z,33.47
2019-04-11T11:51:13.061Z,33.29
2019-04-11T11:52:24.781Z,33.24
2019-04-11T11:53:35.925Z,33.05
2019-04-11T11:54:48.341Z,32.78
2019-04-11T11:56:02.000Z,32.43
2019-04-11T11:57:12.870Z,32.02
2019-04-11T11:58:25.777Z,32.07
2019-04-11T11:59:36.954Z,32.29
2019-04-11T12:00:50.736Z,32.43
2019-04-11T12:02:00.749Z,32.57
2019-04-11T12:03:13.151Z,32.40
2019-04-11T12:04:26.166Z,32.09
2019-04-11T12:05:38.882Z,31.61
2019-04-11T12:06:53.233Z,31.31
2019-04-11T12:08:01.732Z,30.80
2019-04-11T12:09:14.059Z,29.51
2019-04-11T12:10:26.133Z,28.46
2019-04-11T12:11:39.785Z,27.21
2019-04-11T12:12:51.931Z,26.26
2019-04-11T12:14:02.639Z,25.93
2019-04-11T12:15:17.678Z,25.65
2019-04-11T12:16:26.418Z,25.54
2019-04-11T12:17:38.489Z,25.67
2019-04-11T12:18:53.070Z,25.71
2019-04-11T12:20:08.948Z,25.80
2019-04-11T12:21:16.269Z,26.03
2019-04-11T12:22:26.543Z,26.56
2019-04-11T12:23:48.640Z,26.86
2019-04-11T12:24:50.304Z,27.24
2019-04-11T12:26:03.197Z,27.69
2019-04-11T12:27:14.505Z,27.91
2019-04-11T12:28:27.657Z,28.03
2019-04-11T12:29:38.691Z,28.17
2019-04-11T12:30:55.214Z,28.09
2019-04-11T12:32:03.877Z,28.19
2019-04-11T12:33:17.308Z,28.01
2019-04-11T12:34:28.706Z,27.95
2019-04-11T12:35:40.582Z,28.19
2019-04-11T12:36:53.305Z,28.65
2019-04-11T12:38:04.518Z,29.13
2019-04-11T12:39:16.383Z,29.39
2019-04-11T12:40:28.268Z,29.56
2019-04-11T12:41:40.138Z,29.81
2019-04-11T12:42:52.003Z,30.06
2019-04-11T12:44:03.884Z,30.23
2019-04-11T12:45:15.749Z,30.38
2019-04-11T12:46:30.065Z,30.40
2019-04-11T12:47:39.499Z,30.31
2019-04-11T12:48:51.375Z,30.11
2019-04-11T12:50:03.256Z,30.19
2019-04-11T12:51:15.135Z,30.09
2019-04-11T12:52:27.010Z,30.40
2019-04-11T12:53:38.881Z,30.74
2019-04-11T12:54:50.760Z,30.78
2019-04-11T12:56:02.619Z,30.95
2019-04-11T12:57:14.621Z,31.08
2019-04-11T12:58:26.853Z,30.90
2019-04-11T12:59:38.725Z,30.63
2019-04-11T13:00:50.594Z,30.61
2019-04-11T13:02:02.459Z,30.74
2019-04-11T13:03:14.319Z,30.70
2019-04-11T13:04:26.186Z,30.87
2019-04-11T13:05:38.056Z,31.05
2019-04-11T13:06:49.922Z,31.09
2019-04-11T13:08:01.784Z,30.96
2019-04-11T13:09:13.653Z,30.93
2019-04-11T13:10:25.520Z,30.96
2019-04-11T13:11:37.575Z,30.97
2019-04-11T13:12:49.468Z,30.91
2019-04-11T13:14:01.299Z,30.66
2019-04-11T13:15:13.173Z,30.41
2019-04-11T13:16:25.038Z,30.20
2019-04-11T13:17:36.892Z,30.06
2019-04-11T13:18:49.262Z,29.84
2019-04-11T13:20:04.923Z,29.57
2019-04-11T13:21:13.006Z,29.41
2019-04-11T13:22:24.884Z,29.07
2019-04-11T13:23:36.757Z,28.65
2019-04-11T13:24:48.631Z,28.26
2019-04-11T13:26:00.487Z,27.83
2019-04-11T13:27:12.472Z,27.54
2019-04-11T13:28:25.817Z,27.31
2019-04-11T13:29:37.738Z,27.10
2019-04-11T13:30:49.537Z,26.97
2019-04-11T13:32:01.367Z,26.77
2019-04-11T13:33:13.207Z,26.57
2019-04-11T13:34:25.044Z,26.44
2019-04-11T13:35:36.894Z,26.14
2019-04-11T13:36:48.713Z,25.81
2019-04-11T13:38:00.540Z,25.52
2019-04-11T13:39:12.350Z,25.34
2019-04-11T13:40:24.186Z,24.90
2019-04-11T13:41:36.015Z,24.73
2019-04-11T13:42:47.827Z,24.55
2019-04-11T13:43:59.640Z,24.46
2019-04-11T13:45:11.453Z,24.25
2019-04-11T13:46:23.250Z,24.15
2019-04-11T13:47:35.057Z,24.24
2019-04-11T13:48:46.825Z,24.48
2019-04-11T13:49:58.636Z,24.78
2019-04-11T13:51:10.438Z,24.96
2019-04-11T13:52:22.225Z,24.95
2019-04-11T13:53:34.011Z,24.70
2019-04-11T13:54:45.792Z,24.49
2019-04-11T13:55:57.578Z,24.34
2019-04-11T13:57:09.351Z,24.27
2019-04-11T13:58:21.125Z,24.41
2019-04-11T13:59:33.533Z,24.41
2019-04-11T14:00:45.303Z,24.38
2019-04-11T14:01:57.054Z,24.28
2019-04-11T14:03:08.811Z,24.19
2019-04-11T14:04:20.566Z,24.11
2019-04-11T14:05:32.314Z,23.82
2019-04-11T14:06:44.059Z,23.62
2019-04-11T14:07:55.793Z,23.44
2019-04-11T14:09:07.537Z,23.48
2019-04-11T14:10:19.264Z,23.52
2019-04-11T14:11:31.607Z,23.39
2019-04-11T14:12:42.719Z,23.23
2019-04-11T14:13:54.480Z,23.16
2019-04-11T14:15:06.848Z,23.19
2019-04-11T14:16:17.839Z,23.24
2019-04-11T14:17:29.545Z,23.23
2019-04-11T14:18:42.186Z,23.17
2019-04-11T14:19:52.933Z,23.16
2019-04-11T14:21:05.614Z,23.21
2019-04-11T14:22:17.297Z,23.06
2019-04-11T14:23:28.974Z,22.84
2019-04-11T14:24:41.868Z,22.68
2019-04-11T14:25:52.800Z,22.64
2019-04-11T14:27:04.473Z,22.65
2019-04-11T14:28:16.134Z,22.71
2019-04-11T14:29:27.790Z,22.62
2019-04-11T14:30:39.439Z,22.72
2019-04-11T14:31:53.769Z,22.92
2019-04-11T14:33:02.750Z,23.00
2019-04-11T14:34:14.397Z,23.11
2019-04-11T14:35:26.529Z,23.30
2019-04-11T14:36:38.188Z,23.24
2019-04-11T14:37:49.838Z,23.24
2019-04-11T14:39:01.480Z,23.13
2019-04-11T14:40:13.104Z,22.91
2019-04-11T14:41:24.725Z,22.73
2019-04-11T14:42:36.852Z,22.50
2019-04-11T14:43:48.470Z,23.14
2019-04-11T14:45:00.075Z,23.75
2019-04-11T14:46:11.689Z,23.68
2019-04-11T14:47:23.289Z,23.41
2019-04-11T14:48:34.886Z,22.89
2019-04-11T14:49:46.493Z,22.43
2019-04-11T14:50:58.090Z,22.11
2019-04-11T14:52:10.675Z,21.88
2019-04-11T14:53:22.252Z,21.75
2019-04-11T14:54:33.854Z,21.66
2019-04-11T14:55:46.735Z,21.51
2019-04-11T14:56:56.958Z,21.25
2019-04-11T14:58:08.500Z,21.05
2019-04-11T14:59:23.963Z,20.74
2019-04-11T15:00:31.572Z,20.41
2019-04-11T15:01:44.100Z,20.14
2019-04-11T15:02:55.049Z,19.85
2019-04-11T15:04:06.501Z,19.38
2019-04-11T15:05:17.938Z,19.01
2019-04-11T15:06:31.314Z,18.88
2019-04-11T15:07:40.760Z,18.67
2019-04-11T15:08:52.151Z,18.35
2019-04-11T15:10:03.518Z,18.11
2019-04-11T15:11:18.416Z,17.92
2019-04-11T15:12:26.196Z,17.71
2019-04-11T15:13:37.499Z,17.47
2019-04-11T15:14:51.780Z,17.32
2019-04-11T15:16:00.083Z,16.93
2019-04-11T15:17:11.370Z,16.62
2019-04-11T15:18:22.625Z,16.44
2019-04-11T15:19:33.871Z,16.29
2019-04-11T15:20:54.238Z,16.04
2019-04-11T15:21:56.324Z,15.86
2019-04-11T15:23:08.538Z,15.71
2019-04-11T15:24:19.742Z,15.61
2019-04-11T15:25:30.933Z,15.43
2019-04-11T15:26:42.111Z,15.21
2019-04-11T15:27:53.288Z,15.01
2019-04-11T15:29:04.448Z,14.88
2019-04-11T15:30:16.964Z,14.74
2019-04-11T15:31:38.502Z,14.58
2019-04-11T15:32:37.882Z,14.54
2019-04-11T15:33:49.005Z,14.52
2019-04-11T15:35:00.143Z,14.39
2019-04-11T15:36:11.745Z,14.33